Time;durP1;ratioP1;P1;durP2;ratioP2;P2;SDS_P1;SDS_P2;PMS_P1;PMS_P2;Temp;Humidity;BMP_temperature;BMP_pressure;BME280_temperature;BME280_humidity;BME280_pressure;Samples;Min_cycle;Max_cycle;Signal;HPM_P1;HPM_P2
2021/09/07 00:01:59;;;;;;;2.57;1.93;;;15.30;56.90;;;;;;5048680;28;20661;-77
2021/09/07 00:04:29;;;;;;;3.60;2.50;;;15.20;57.00;;;;;;5048325;28;20227;-77
2021/09/07 00:06:57;;;;;;;3.73;2.57;;;15.20;57.20;;;;;;5036015;28;20193;-77
2021/09/07 00:09:24;;;;;;;2.47;2.27;;;15.20;57.60;;;;;;5035859;28;20221;-76
2021/09/07 00:11:53;;;;;;;3.03;2.60;;;15.10;57.60;;;;;;5048114;28;20660;-78
2021/09/07 00:14:20;;;;;;;3.53;2.37;;;15.00;57.80;;;;;;5047432;28;20323;-78
2021/09/07 00:16:48;;;;;;;3.10;2.50;;;15.00;57.90;;;;;;5047185;28;20204;-77
2021/09/07 00:19:15;;;;;;;2.73;2.30;;;15.00;58.10;;;;;;5047854;28;20319;-76
2021/09/07 00:21:42;;;;;;;2.70;2.27;;;15.00;58.30;;;;;;5048415;28;20198;-77
2021/09/07 00:24:09;;;;;;;4.33;2.57;;;14.90;58.30;;;;;;5048258;28;20261;-77
2021/09/07 00:26:36;;;;;;;3.23;2.77;;;14.90;58.50;;;;;;5047928;28;20196;-77
2021/09/07 00:29:04;;;;;;;2.60;2.40;;;14.90;58.70;;;;;;5047338;28;21120;-77
2021/09/07 00:31:31;;;;;;;3.23;2.33;;;14.80;58.80;;;;;;5046629;28;20211;-77
2021/09/07 00:33:58;;;;;;;3.40;2.30;;;14.80;59.00;;;;;;5047749;28;20214;-76
2021/09/07 00:36:25;;;;;;;2.87;2.50;;;14.80;59.70;;;;;;5047331;28;20610;-78
2021/09/07 00:38:52;;;;;;;3.60;2.40;;;14.70;59.20;;;;;;5049119;28;20218;-78
2021/09/07 00:41:19;;;;;;;2.93;2.60;;;14.70;59.40;;;;;;5045499;28;20679;-76
2021/09/07 00:43:46;;;;;;;2.57;2.10;;;14.70;59.70;;;;;;5047592;28;20217;-76
2021/09/07 00:46:14;;;;;;;2.10;1.93;;;14.70;59.80;;;;;;5047420;28;20207;-77
2021/09/07 00:48:41;;;;;;;2.50;2.20;;;14.70;60.00;;;;;;5049074;28;20200;-76
2021/09/07 00:51:08;;;;;;;2.47;2.13;;;14.60;60.20;;;;;;5048320;28;20207;-76
2021/09/07 00:53:36;;;;;;;3.17;2.30;;;14.60;60.20;;;;;;5048082;28;20220;-78
2021/09/07 00:56:03;;;;;;;3.77;2.00;;;14.60;60.50;;;;;;5047049;28;20295;-78
2021/09/07 00:58:31;;;;;;;2.00;1.80;;;14.60;60.70;;;;;;5049244;28;20231;-78
2021/09/07 01:00:59;;;;;;;2.30;1.60;;;14.60;60.90;;;;;;5048258;28;20231;-77
2021/09/07 01:03:28;;;;;;;2.07;1.87;;;14.60;61.20;;;;;;5047091;28;20651;-77
2021/09/07 01:05:56;;;;;;;2.13;1.87;;;14.50;61.50;;;;;;5043420;28;20223;-77
2021/09/07 01:08:23;;;;;;;2.10;1.73;;;14.50;62.50;;;;;;5041932;28;20205;-78
2021/09/07 01:10:50;;;;;;;1.70;1.60;;;14.40;62.00;;;;;;5047136;28;20287;-78
2021/09/07 01:13:18;;;;;;;1.93;1.70;;;14.50;62.40;;;;;;5047520;28;20204;-78
2021/09/07 01:15:45;;;;;;;2.40;1.70;;;14.40;62.50;;;;;;5048686;28;20207;-77
2021/09/07 01:18:12;;;;;;;1.40;1.30;;;14.40;62.80;;;;;;5046705;28;20583;-77
2021/09/07 01:20:40;;;;;;;1.63;1.53;;;14.40;63.10;;;;;;5046933;28;20239;-78
2021/09/07 01:23:07;;;;;;;1.70;1.60;;;14.40;63.40;;;;;;5046632;28;20274;-78
2021/09/07 01:25:36;;;;;;;2.10;1.53;;;14.40;63.60;;;;;;5049143;28;20210;-78
2021/09/07 01:28:03;;;;;;;1.53;1.40;;;14.40;63.90;;;;;;5051745;28;20204;-78
2021/09/07 01:30:31;;;;;;;1.70;1.60;;;14.40;64.00;;;;;;5051842;28;20196;-78
2021/09/07 01:33:00;;;;;;;2.27;1.83;;;14.50;64.40;;;;;;5050016;28;20668;-77
2021/09/07 01:35:27;;;;;;;1.97;1.60;;;14.50;64.60;;;;;;5052347;28;20206;-78
2021/09/07 01:37:53;;;;;;;1.70;1.60;;;14.40;64.80;;;;;;5050281;28;20213;-77
2021/09/07 01:40:20;;;;;;;1.47;1.37;;;14.40;65.10;;;;;;5051321;28;20223;-77
2021/09/07 01:42:49;;;;;;;1.70;1.60;;;14.30;65.40;;;;;;5049334;28;20204;-77
2021/09/07 01:45:16;;;;;;;2.30;1.87;;;14.30;65.80;;;;;;5051132;28;20204;-77
2021/09/07 01:47:42;;;;;;;1.70;1.60;;;14.30;66.10;;;;;;5050210;28;20521;-77
2021/09/07 01:50:11;;;;;;;1.50;1.30;;;14.20;66.30;;;;;;5052120;28;20198;-77
2021/09/07 01:52:38;;;;;;;2.07;1.50;;;14.20;67.00;;;;;;5050346;28;20607;-77
2021/09/07 01:55:06;;;;;;;1.60;1.50;;;14.20;67.00;;;;;;5049611;28;20207;-77
2021/09/07 01:57:33;;;;;;;1.97;1.67;;;14.20;67.40;;;;;;5049828;28;20226;-77
2021/09/07 02:00:01;;;;;;;1.50;1.40;;;14.20;67.80;;;;;;5050400;28;20695;-77
2021/09/07 02:02:29;;;;;;;1.50;1.40;;;14.20;68.00;;;;;;5049962;28;20300;-77
2021/09/07 02:04:56;;;;;;;2.50;1.77;;;14.20;68.40;;;;;;5047618;28;20286;-77
2021/09/07 02:07:23;;;;;;;1.57;1.47;;;14.10;68.80;;;;;;5050297;28;20776;-77
2021/09/07 02:09:51;;;;;;;1.87;1.63;;;14.10;69.40;;;;;;5051225;28;20269;-77
2021/09/07 02:12:18;;;;;;;1.73;1.60;;;14.00;69.90;;;;;;5050109;28;20753;-77
2021/09/07 02:14:46;;;;;;;1.70;1.60;;;13.90;70.30;;;;;;5050308;28;20196;-77
2021/09/07 02:17:14;;;;;;;1.60;1.50;;;13.90;71.00;;;;;;5050603;28;20205;-77
2021/09/07 02:19:42;;;;;;;2.13;1.60;;;13.90;71.40;;;;;;5051166;28;20245;-77
2021/09/07 02:22:10;;;;;;;1.43;1.33;;;13.80;72.60;;;;;;5050541;28;20285;-77
2021/09/07 02:24:37;;;;;;;1.70;1.60;;;13.80;72.40;;;;;;5049129;28;20285;-77
2021/09/07 02:27:05;;;;;;;1.83;1.47;;;13.80;73.70;;;;;;5049928;28;20215;-77
2021/09/07 02:29:32;;;;;;;1.77;1.53;;;13.70;73.30;;;;;;5051074;28;20209;-77
2021/09/07 02:32:01;;;;;;;1.63;1.50;;;13.70;73.80;;;;;;5050339;28;20197;-77
2021/09/07 02:34:29;;;;;;;1.50;1.40;;;13.70;74.40;;;;;;5050711;28;20204;-77
2021/09/07 02:36:56;;;;;;;1.83;1.60;;;13.70;74.90;;;;;;5050077;28;20202;-77
2021/09/07 02:39:24;;;;;;;1.90;1.50;;;13.70;75.40;;;;;;5050046;28;20217;-77
2021/09/07 02:41:51;;;;;;;1.77;1.67;;;13.60;76.00;;;;;;5048516;28;20577;-77
2021/09/07 02:44:18;;;;;;;1.97;1.40;;;13.60;76.60;;;;;;5048957;28;20645;-77
2021/09/07 02:46:46;;;;;;;1.40;1.30;;;13.60;77.20;;;;;;5049981;28;20201;-77
2021/09/07 02:49:14;;;;;;;2.37;1.80;;;13.60;77.80;;;;;;5050436;28;20198;-76
2021/09/07 02:51:43;;;;;;;1.50;1.40;;;13.50;78.20;;;;;;5050367;28;20209;-77
2021/09/07 02:54:11;;;;;;;1.97;1.83;;;13.50;78.70;;;;;;5048147;28;20764;-77
2021/09/07 02:56:39;;;;;;;2.00;1.87;;;13.50;79.40;;;;;;5049672;28;20197;-77
2021/09/07 02:59:09;;;;;;;2.10;1.90;;;13.50;79.90;;;;;;5050880;28;20271;-78
2021/09/07 03:01:36;;;;;;;2.33;1.70;;;13.40;80.40;;;;;;5050193;28;20232;-76
2021/09/07 03:04:04;;;;;;;2.13;1.87;;;13.40;81.20;;;;;;5050044;28;20672;-76
2021/09/07 03:06:30;;;;;;;2.43;1.73;;;13.40;81.90;;;;;;5046041;28;20202;-77
2021/09/07 03:08:59;;;;;;;1.83;1.70;;;13.30;82.60;;;;;;5046224;28;20562;-77
2021/09/07 03:11:27;;;;;;;1.67;1.37;;;13.30;83.20;;;;;;5048955;28;20222;-77
2021/09/07 03:13:54;;;;;;;1.60;1.43;;;13.30;83.70;;;;;;5050495;28;20256;-77
2021/09/07 03:16:21;;;;;;;1.40;1.30;;;13.20;84.20;;;;;;5048846;28;20198;-76
2021/09/07 03:18:51;;;;;;;1.83;1.57;;;13.20;84.90;;;;;;5049306;28;20319;-77
2021/09/07 03:21:18;;;;;;;2.00;1.80;;;13.20;85.50;;;;;;5049071;28;20209;-77
2021/09/07 03:23:45;;;;;;;1.80;1.70;;;13.10;86.10;;;;;;5048529;28;20611;-77
2021/09/07 03:26:15;;;;;;;2.27;1.50;;;13.10;86.50;;;;;;5046906;28;20213;-77
2021/09/07 03:28:42;;;;;;;1.27;1.17;;;13.10;87.20;;;;;;5050383;28;20204;-76
2021/09/07 03:31:09;;;;;;;1.87;1.53;;;13.10;87.80;;;;;;5049485;28;20201;-77
2021/09/07 03:33:36;;;;;;;1.63;1.53;;;13.00;88.30;;;;;;5049138;28;20240;-76
2021/09/07 03:36:05;;;;;;;1.53;1.30;;;13.00;88.80;;;;;;5048590;28;20296;-76
2021/09/07 03:38:32;;;;;;;1.50;1.40;;;13.00;89.30;;;;;;5045263;28;20614;-76
2021/09/07 03:41:01;;;;;;;1.60;1.50;;;13.00;90.10;;;;;;5048017;28;20186;-76
2021/09/07 03:43:29;;;;;;;1.30;1.20;;;13.00;90.20;;;;;;5049877;28;20308;-76
2021/09/07 03:45:57;;;;;;;1.63;1.50;;;13.00;90.50;;;;;;5049696;28;20207;-76
2021/09/07 03:48:24;;;;;;;1.87;1.60;;;13.00;90.60;;;;;;5048464;28;20759;-77
2021/09/07 03:50:51;;;;;;;1.80;1.40;;;13.00;90.80;;;;;;5047918;28;20201;-76
2021/09/07 03:53:18;;;;;;;1.23;1.10;;;12.90;90.90;;;;;;5048023;28;20834;-76
2021/09/07 03:55:46;;;;;;;1.30;1.20;;;12.90;91.00;;;;;;5046993;28;20197;-76
2021/09/07 03:58:13;;;;;;;1.43;1.33;;;12.90;91.30;;;;;;5049116;28;20200;-77
2021/09/07 04:00:44;;;;;;;1.57;1.47;;;12.90;91.50;;;;;;5049352;28;20304;-76
2021/09/07 04:03:16;;;;;;;1.63;1.47;;;12.90;91.70;;;;;;5045939;28;20210;-76
2021/09/07 04:05:45;;;;;;;1.77;1.67;;;12.80;91.90;;;;;;5074158;28;20664;-77
2021/09/07 04:08:14;;;;;;;1.93;1.60;;;12.80;92.10;;;;;;5028572;28;20251;-77
2021/09/07 04:10:44;;;;;;;1.87;1.50;;;12.80;92.40;;;;;;5046173;28;20191;-77
2021/09/07 04:13:11;;;;;;;2.87;1.60;;;12.80;92.60;;;;;;5044224;28;20254;-77
2021/09/07 04:15:38;;;;;;;1.90;1.67;;;12.80;92.70;;;;;;5046795;28;20260;-77
2021/09/07 04:18:06;;;;;;;1.83;1.60;;;12.70;92.80;;;;;;5048766;28;20205;-77
2021/09/07 04:20:33;;;;;;;1.43;1.33;;;12.70;93.00;;;;;;5049256;28;20220;-77
2021/09/07 04:23:02;;;;;;;2.00;1.30;;;12.70;93.10;;;;;;5049420;28;20192;-78
2021/09/07 04:25:29;;;;;;;2.60;1.80;;;12.70;93.30;;;;;;5048189;28;20196;-77
2021/09/07 04:27:56;;;;;;;2.20;1.73;;;12.70;93.50;;;;;;5048470;28;20207;-78
2021/09/07 04:30:23;;;;;;;1.50;1.40;;;12.70;93.70;;;;;;5048104;28;20206;-78
2021/09/07 04:32:50;;;;;;;1.70;1.60;;;12.70;93.90;;;;;;5048293;28;20202;-77
2021/09/07 04:35:18;;;;;;;1.80;1.70;;;12.70;94.00;;;;;;5048582;28;20228;-77
2021/09/07 04:37:46;;;;;;;1.77;1.60;;;12.70;94.20;;;;;;5047339;28;20219;-78
2021/09/07 04:40:13;;;;;;;2.10;1.83;;;12.70;94.40;;;;;;5046917;28;20701;-77
2021/09/07 04:42:40;;;;;;;2.17;1.97;;;12.60;94.50;;;;;;5047813;28;20563;-77
2021/09/07 04:45:08;;;;;;;2.60;1.80;;;12.60;94.60;;;;;;5080747;28;20208;-77
2021/09/07 04:47:35;;;;;;;2.20;1.90;;;12.60;94.80;;;;;;5047696;28;20209;-77
2021/09/07 04:50:03;;;;;;;2.17;1.73;;;12.70;94.90;;;;;;5049035;28;20191;-77
2021/09/07 04:52:31;;;;;;;3.30;1.60;;;12.70;95.00;;;;;;5048344;28;20197;-77
2021/09/07 04:54:58;;;;;;;1.77;1.60;;;12.70;95.10;;;;;;5046815;28;20265;-77
2021/09/07 04:57:25;;;;;;;3.03;1.80;;;12.70;95.10;;;;;;5047679;28;20221;-78
2021/09/07 04:59:52;;;;;;;3.73;1.90;;;12.70;95.10;;;;;;5050930;28;20202;-77
2021/09/07 05:02:19;;;;;;;2.63;2.20;;;12.70;95.30;;;;;;5051887;28;20669;-77
2021/09/07 05:04:46;;;;;;;2.23;1.77;;;12.80;95.40;;;;;;5052388;28;20245;-77
2021/09/07 05:07:13;;;;;;;3.23;2.00;;;12.80;95.40;;;;;;5038999;28;20202;-77
2021/09/07 05:09:41;;;;;;;2.57;1.77;;;12.80;95.40;;;;;;5050759;28;20200;-78
2021/09/07 05:12:08;;;;;;;2.27;1.70;;;12.80;95.50;;;;;;5050091;28;20566;-77
2021/09/07 05:14:35;;;;;;;2.43;1.90;;;12.80;95.50;;;;;;5052624;28;20671;-77
2021/09/07 05:17:02;;;;;;;2.73;2.00;;;12.90;95.60;;;;;;5052083;28;20190;-77
2021/09/07 05:19:29;;;;;;;2.80;1.97;;;12.90;95.60;;;;;;5052823;28;20678;-77
2021/09/07 05:21:56;;;;;;;3.10;2.07;;;13.00;95.60;;;;;;5052438;28;20579;-78
2021/09/07 05:24:23;;;;;;;2.43;2.23;;;13.00;95.60;;;;;;5051850;28;20277;-77
2021/09/07 05:26:51;;;;;;;2.23;2.00;;;13.10;95.80;;;;;;5049878;28;20543;-78
2021/09/07 05:29:18;;;;;;;2.30;2.10;;;13.10;95.80;;;;;;5042803;28;20208;-78
2021/09/07 05:31:45;;;;;;;2.27;2.07;;;13.10;95.80;;;;;;5050580;28;20210;-78
2021/09/07 05:34:12;;;;;;;1.93;1.83;;;13.20;95.90;;;;;;5050437;28;20663;-78
2021/09/07 05:36:38;;;;;;;2.50;2.10;;;13.20;95.80;;;;;;5050624;28;20212;-78
2021/09/07 05:39:05;;;;;;;2.33;2.13;;;13.30;95.80;;;;;;5051551;28;20204;-76
2021/09/07 05:41:32;;;;;;;2.37;2.00;;;13.40;95.80;;;;;;5050701;28;20572;-77
2021/09/07 05:44:01;;;;;;;3.03;2.13;;;13.40;95.80;;;;;;5050665;28;20275;-76
2021/09/07 05:46:27;;;;;;;2.60;2.20;;;13.50;95.80;;;;;;5050746;28;20654;-77
2021/09/07 05:48:54;;;;;;;2.20;2.00;;;13.60;95.70;;;;;;5052297;28;20579;-76
2021/09/07 05:51:21;;;;;;;1.93;1.80;;;13.60;95.60;;;;;;5051357;28;20264;-76
2021/09/07 05:53:48;;;;;;;2.10;1.97;;;13.80;95.60;;;;;;5051835;28;20280;-76
2021/09/07 05:56:17;;;;;;;2.53;2.23;;;14.00;95.60;;;;;;5049005;28;20651;-77
2021/09/07 05:58:44;;;;;;;1.90;1.80;;;14.70;95.40;;;;;;5050971;28;20240;-77
2021/09/07 06:01:13;;;;;;;2.23;2.03;;;15.70;94.20;;;;;;5049733;28;20227;-77
2021/09/07 06:03:40;;;;;;;2.07;1.90;;;16.80;92.60;;;;;;5050994;28;20212;-77
2021/09/07 06:06:08;;;;;;;2.47;1.87;;;17.60;91.10;;;;;;5049500;28;20197;-77
2021/09/07 06:08:35;;;;;;;2.20;1.70;;;18.20;89.70;;;;;;5049677;28;20198;-77
2021/09/07 06:11:04;;;;;;;2.77;1.90;;;18.60;88.90;;;;;;5047482;28;20563;-78
2021/09/07 06:13:31;;;;;;;3.07;2.20;;;18.80;87.10;;;;;;5051196;28;20202;-78
2021/09/07 06:15:58;;;;;;;2.43;2.23;;;19.00;86.30;;;;;;5050992;28;20681;-78
2021/09/07 06:18:26;;;;;;;2.90;2.13;;;19.10;85.20;;;;;;5049763;28;20213;-78
2021/09/07 06:20:54;;;;;;;2.50;2.17;;;19.20;84.20;;;;;;5040028;28;20225;-77
2021/09/07 06:23:21;;;;;;;2.70;2.37;;;19.40;83.20;;;;;;5051571;28;20206;-77
2021/09/07 06:25:48;;;;;;;2.67;2.20;;;19.60;82.00;;;;;;5062972;28;20662;-77
2021/09/07 06:28:15;;;;;;;2.50;2.30;;;19.90;81.00;;;;;;5049342;28;20570;-77
2021/09/07 06:30:42;;;;;;;3.08;2.28;;;20.20;79.40;;;;;;5051426;28;20742;-78
2021/09/07 06:33:09;;;;;;;2.50;2.27;;;20.60;78.00;;;;;;5049507;28;20206;-77
2021/09/07 06:35:37;;;;;;;2.30;1.98;;;21.00;76.70;;;;;;5050354;28;20684;-79
2021/09/07 06:38:04;;;;;;;1.92;1.83;;;21.60;74.80;;;;;;5051041;28;20239;-78
2021/09/07 06:40:31;;;;;;;2.55;2.20;;;22.30;72.50;;;;;;5050090;28;20228;-77
2021/09/07 06:42:58;;;;;;;2.45;2.17;;;23.30;69.80;;;;;;5048834;28;20696;-78
2021/09/07 06:45:25;;;;;;;1.83;1.67;;;24.60;66.00;;;;;;5049076;28;20290;-78
2021/09/07 06:47:52;;;;;;;2.95;2.38;;;25.90;62.00;;;;;;5048622;28;20205;-78
2021/09/07 06:50:19;;;;;;;2.05;1.85;;;27.20;58.00;;;;;;5050789;28;20197;-79
2021/09/07 06:52:47;;;;;;;2.67;2.20;;;28.60;55.10;;;;;;5050251;28;20197;-79
2021/09/07 06:55:14;;;;;;;2.28;2.17;;;29.90;52.00;;;;;;5049566;28;20563;-79
2021/09/07 06:57:41;;;;;;;2.35;2.15;;;31.20;49.20;;;;;;5049335;28;20202;-80
2021/09/07 07:00:09;;;;;;;4.38;2.35;;;32.30;46.80;;;;;;5050818;28;20220;-79
2021/09/07 07:02:39;;;;;;;2.53;2.33;;;33.40;44.70;;;;;;5049826;28;20557;-79
2021/09/07 07:05:07;;;;;;;3.17;2.30;;;34.30;42.70;;;;;;5050173;28;20734;-79
2021/09/07 07:07:34;;;;;;;2.20;2.10;;;35.00;41.40;;;;;;5048392;28;20255;-79
2021/09/07 07:10:02;;;;;;;2.25;2.10;;;35.60;40.20;;;;;;5050177;28;20204;-79
2021/09/07 07:12:29;;;;;;;2.13;2.03;;;36.30;38.90;;;;;;5048679;28;20237;-79
2021/09/07 07:14:56;;;;;;;2.13;2.03;;;37.00;37.90;;;;;;5051193;28;20206;-78
2021/09/07 07:17:23;;;;;;;2.10;2.00;;;37.80;36.70;;;;;;5049930;28;20492;-78
2021/09/07 07:19:51;;;;;;;4.57;2.33;;;38.30;35.70;;;;;;5051699;28;20204;-78
2021/09/07 07:22:20;;;;;;;2.47;2.30;;;38.70;34.50;;;;;;5048371;28;20217;-78
2021/09/07 07:24:47;;;;;;;2.72;2.63;;;39.00;33.70;;;;;;5049661;28;20202;-78
2021/09/07 07:27:15;;;;;;;2.83;2.30;;;39.50;32.80;;;;;;5047690;28;20245;-79
2021/09/07 07:29:42;;;;;;;3.47;2.88;;;40.10;32.30;;;;;;5050512;28;20190;-78
2021/09/07 07:32:09;;;;;;;3.10;2.90;;;40.70;31.20;;;;;;5048337;28;20225;-79
2021/09/07 07:34:36;;;;;;;3.50;3.20;;;41.20;30.40;;;;;;5048409;28;20320;-78
2021/09/07 07:37:05;;;;;;;2.92;2.72;;;41.80;30.00;;;;;;5049883;28;20208;-78
2021/09/07 07:39:32;;;;;;;3.83;3.20;;;42.30;29.30;;;;;;5047668;28;20201;-78
2021/09/07 07:41:59;;;;;;;6.00;3.40;;;42.90;28.60;;;;;;5048739;28;20225;-78
2021/09/07 07:44:27;;;;;;;3.08;2.83;;;43.50;28.10;;;;;;5049241;28;20204;-78
2021/09/07 07:46:54;;;;;;;3.40;3.20;;;44.10;27.50;;;;;;5048972;28;20929;-79
2021/09/07 07:49:21;;;;;;;3.65;3.33;;;44.50;26.90;;;;;;5048533;28;20220;-79
2021/09/07 07:51:48;;;;;;;3.72;3.45;;;44.90;26.50;;;;;;5048139;28;20208;-79
2021/09/07 07:54:15;;;;;;;3.75;3.47;;;45.20;26.10;;;;;;5048602;28;20203;-79
2021/09/07 07:56:42;;;;;;;3.55;3.35;;;45.50;25.70;;;;;;5048221;28;20196;-79
2021/09/07 07:59:09;;;;;;;3.50;3.22;;;45.80;25.50;;;;;;5048120;28;20328;-79
2021/09/07 08:01:37;;;;;;;4.32;4.03;;;46.20;25.00;;;;;;5049031;28;20655;-78
2021/09/07 08:04:04;;;;;;;6.78;6.28;;;46.60;24.50;;;;;;5044215;28;20559;-79
2021/09/07 08:06:32;;;;;;;5.00;4.60;;;46.80;24.10;;;;;;5038368;28;20689;-79
2021/09/07 08:08:59;;;;;;;4.63;4.32;;;47.10;23.70;;;;;;5046415;28;20197;-79
2021/09/07 08:11:26;;;;;;;4.18;3.88;;;47.40;23.40;;;;;;5046033;28;20603;-79
2021/09/07 08:13:53;;;;;;;4.65;4.35;;;47.60;23.30;;;;;;5043511;28;20206;-79
2021/09/07 08:16:22;;;;;;;4.18;3.88;;;48.10;22.90;;;;;;5047653;28;20200;-79
2021/09/07 08:18:50;;;;;;;3.47;3.28;;;48.60;22.60;;;;;;5048611;28;20263;-79
2021/09/07 08:21:17;;;;;;;3.47;3.25;;;49.10;22.30;;;;;;5048114;28;20608;-79
2021/09/07 08:23:44;;;;;;;3.15;2.95;;;49.50;22.00;;;;;;5049470;28;20263;-79
2021/09/07 08:26:11;;;;;;;3.10;3.00;;;49.80;21.70;;;;;;5047856;28;20713;-80
2021/09/07 08:28:38;;;;;;;3.15;2.95;;;50.30;21.40;;;;;;5048105;28;20206;-80
2021/09/07 08:31:05;;;;;;;3.22;3.03;;;50.80;21.20;;;;;;5049133;28;20212;-80
2021/09/07 08:33:32;;;;;;;2.92;2.83;;;51.30;20.80;;;;;;5047972;28;20209;-80
2021/09/07 08:36:00;;;;;;;2.90;2.80;;;51.70;20.40;;;;;;5053413;28;20197;-79
2021/09/07 08:38:29;;;;;;;3.95;3.00;;;51.90;20.10;;;;;;5053210;28;20209;-79
2021/09/07 08:40:57;;;;;;;4.75;2.90;;;51.90;19.40;;;;;;5052230;28;20201;-80
2021/09/07 08:43:25;;;;;;;3.22;2.90;;;51.80;19.10;;;;;;5053143;28;20204;-79
2021/09/07 08:45:52;;;;;;;3.08;2.97;;;51.80;18.90;;;;;;5051740;28;20220;-80
2021/09/07 08:48:22;;;;;;;2.97;2.78;;;51.80;18.70;;;;;;5061253;28;20197;-78
2021/09/07 08:50:49;;;;;;;3.30;3.10;;;51.80;18.50;;;;;;5051427;28;20226;-78
2021/09/07 08:53:17;;;;;;;4.43;3.65;;;51.90;18.50;;;;;;5052863;28;20212;-80
2021/09/07 08:55:44;;;;;;;3.00;2.90;;;52.10;18.30;;;;;;5049947;28;20554;-79
2021/09/07 08:58:11;;;;;;;3.70;3.50;;;52.30;18.10;;;;;;5050918;28;20201;-80
2021/09/07 09:00:38;;;;;;;5.30;5.00;;;52.60;18.00;;;;;;5051014;28;20209;-80
2021/09/07 09:03:10;;;;;;;4.00;3.70;;;52.90;17.60;;;;;;5052649;28;20280;-79
2021/09/07 09:05:37;;;;;;;3.10;3.00;;;53.10;17.30;;;;;;5050791;28;20201;-80
2021/09/07 09:08:11;;;;;;;3.40;3.20;;;53.20;17.00;;;;;;5051176;28;20206;-80
2021/09/07 09:10:39;;;;;;;3.33;3.13;;;53.40;16.80;;;;;;5036365;28;20617;-79
2021/09/07 09:13:09;;;;;;;3.10;3.00;;;54.00;16.50;;;;;;5051791;28;20232;-80
2021/09/07 09:15:36;;;;;;;3.50;3.30;;;54.40;16.30;;;;;;5051139;28;20208;-80
2021/09/07 09:18:08;;;;;;;3.42;3.33;;;54.80;16.20;;;;;;5052148;28;20206;-80
2021/09/07 09:20:35;;;;;;;4.10;3.72;;;55.00;16.10;;;;;;5040089;28;20208;-79
2021/09/07 09:23:03;;;;;;;4.03;3.38;;;55.10;16.00;;;;;;5052700;28;20194;-80
2021/09/07 09:25:40;;;;;;;3.70;3.60;;;55.00;15.90;;;;;;5051799;28;20197;-79
2021/09/07 09:28:19;;;;;;;3.53;3.42;;;54.80;15.70;;;;;;5051874;28;20197;-79
2021/09/07 09:30:48;;;;;;;3.85;3.65;;;54.70;15.70;;;;;;5052472;28;20197;-79
2021/09/07 09:33:17;;;;;;;3.83;3.65;;;54.70;15.70;;;;;;5051814;28;20749;-79
2021/09/07 09:35:52;;;;;;;4.55;4.30;;;54.70;15.80;;;;;;5050827;28;20679;-80
2021/09/07 09:38:20;;;;;;;4.32;4.13;;;54.90;15.80;;;;;;5049709;28;20604;-79
2021/09/07 09:41:00;;;;;;;4.60;4.40;;;55.20;15.70;;;;;;5049805;28;20221;-79
2021/09/07 09:43:33;;;;;;;4.60;4.20;;;55.30;15.50;;;;;;5051618;28;20201;-79
2021/09/07 09:46:22;;;;;;;4.50;4.30;;;55.50;15.40;;;;;;5050570;28;20284;-79
2021/09/07 09:48:50;;;;;;;4.15;3.95;;;55.60;15.40;;;;;;5052137;28;20202;-78
2021/09/07 09:51:19;;;;;;;3.75;3.58;;;55.50;15.20;;;;;;5051440;28;20240;-79
2021/09/07 09:53:48;;;;;;;4.10;3.90;;;55.40;15.10;;;;;;5051663;28;20189;-79
2021/09/07 09:56:17;;;;;;;4.22;4.03;;;55.10;14.80;;;;;;5048466;28;20553;-79
2021/09/07 09:58:45;;;;;;;4.15;3.95;;;54.90;14.70;;;;;;5083899;28;20209;-78
2021/09/07 10:01:11;;;;;;;3.85;3.75;;;54.70;14.80;;;;;;5050396;28;20680;-79
2021/09/07 10:03:40;;;;;;;3.40;3.22;;;54.80;14.90;;;;;;5049912;28;20209;-79
2021/09/07 10:06:08;;;;;;;4.10;3.90;;;55.00;15.00;;;;;;5049506;28;20205;-79
2021/09/07 10:08:35;;;;;;;3.78;3.58;;;54.80;14.70;;;;;;5049759;28;20204;-79
2021/09/07 10:11:07;;;;;;;5.35;3.78;;;54.40;14.80;;;;;;5049233;28;20672;-79
2021/09/07 10:13:36;;;;;;;3.55;3.45;;;54.20;14.90;;;;;;5051260;28;20198;-79
2021/09/07 10:16:07;;;;;;;3.70;3.50;;;54.20;14.90;;;;;;5049595;28;20240;-79
2021/09/07 10:18:50;;;;;;;3.55;3.40;;;54.10;14.90;;;;;;5051136;28;20567;-79
2021/09/07 10:24:54;;;;;;;3.92;3.72;;;53.80;14.70;;;;;;5058794;28;20193;-78
2021/09/07 10:27:22;;;;;;;4.18;3.97;;;53.50;14.80;;;;;;4988096;28;20265;-78
2021/09/07 10:29:52;;;;;;;4.05;3.85;;;53.20;14.80;;;;;;4989884;28;20671;-78
2021/09/07 10:32:30;;;;;;;5.00;4.70;;;53.00;14.80;;;;;;4972807;28;20825;-78
2021/09/07 10:35:14;;;;;;;4.70;4.50;;;52.80;14.80;;;;;;4973657;28;20207;-78
2021/09/07 10:38:10;;;;;;;4.60;4.40;;;52.90;15.00;;;;;;4972665;28;20211;-80
2021/09/07 10:40:45;;;;;;;5.30;5.00;;;53.10;15.00;;;;;;4968750;28;20612;-79
2021/09/07 10:43:12;;;;;;;4.68;4.43;;;53.30;14.90;;;;;;4989314;28;20230;-79
2021/09/07 10:45:41;;;;;;;4.70;4.50;;;53.40;14.90;;;;;;4972538;28;20210;-80
2021/09/07 10:48:30;;;;;;;4.75;4.50;;;53.50;14.90;;;;;;4988806;28;20196;-79
2021/09/07 10:50:58;;;;;;;4.70;4.40;;;53.50;14.80;;;;;;4988837;28;20282;-79
2021/09/07 10:53:25;;;;;;;4.40;4.20;;;53.30;14.70;;;;;;4989126;28;20687;-79
2021/09/07 10:55:52;;;;;;;4.65;4.38;;;53.50;14.80;;;;;;4971610;28;20294;-79
2021/09/07 10:58:32;;;;;;;4.53;4.28;;;53.20;14.70;;;;;;4987827;28;20207;-78
2021/09/07 11:01:32;;;;;;;4.13;3.83;;;52.90;14.70;;;;;;4981373;28;20203;-78
2021/09/07 11:04:31;;;;;;;4.30;4.10;;;52.80;15.00;;;;;;5010114;28;20209;-80
2021/09/07 11:06:58;;;;;;;4.25;4.05;;;52.80;15.00;;;;;;5046488;28;20212;-80
2021/09/07 11:09:51;;;;;;;4.28;4.07;;;52.70;14.90;;;;;;5038974;28;20221;-79
2021/09/07 11:12:26;;;;;;;4.78;4.53;;;52.40;15.00;;;;;;5035877;28;20310;-79
2021/09/07 11:15:01;;;;;;;4.53;4.32;;;52.40;15.00;;;;;;5048881;28;20215;-79
2021/09/07 11:17:30;;;;;;;4.72;4.53;;;52.40;15.10;;;;;;5049697;28;20193;-78
2021/09/07 11:20:02;;;;;;;5.07;4.78;;;52.10;14.90;;;;;;5050192;28;20201;-78
2021/09/07 11:22:29;;;;;;;4.70;4.50;;;51.60;15.00;;;;;;5048499;28;20204;-79
2021/09/07 11:25:05;;;;;;;4.20;4.00;;;51.20;15.00;;;;;;5049558;28;20198;-78
2021/09/07 11:28:06;;;;;;;4.60;4.40;;;51.10;15.20;;;;;;5047249;28;20200;-79
2021/09/07 11:30:35;;;;;;;4.03;3.83;;;50.70;15.10;;;;;;4986595;28;20203;-79
2021/09/07 11:33:06;;;;;;;3.90;3.60;;;50.60;15.30;;;;;;4975150;28;20223;-78
2021/09/07 11:35:37;;;;;;;3.80;3.70;;;50.40;15.30;;;;;;4988636;28;20302;-78
2021/09/07 11:38:05;;;;;;;4.45;4.10;;;50.00;15.40;;;;;;4982514;28;20203;-78
2021/09/07 11:40:33;;;;;;;4.38;4.07;;;49.70;15.40;;;;;;4984604;28;20199;-78
2021/09/07 11:43:02;;;;;;;4.63;4.32;;;49.70;15.40;;;;;;4974951;28;20331;-78
2021/09/07 11:45:32;;;;;;;3.42;3.33;;;49.50;15.50;;;;;;4984365;28;20703;-78
2021/09/07 11:48:00;;;;;;;4.05;3.85;;;49.30;15.60;;;;;;4987888;28;20250;-78
2021/09/07 11:50:32;;;;;;;3.83;3.63;;;48.90;15.60;;;;;;4987274;28;20210;-79
2021/09/07 11:53:00;;;;;;;4.10;3.90;;;48.20;15.80;;;;;;4987650;28;20235;-78
2021/09/07 11:55:51;;;;;;;6.10;5.70;;;47.80;16.00;;;;;;4987792;28;20202;-78
2021/09/07 11:58:33;;;;;;;5.50;5.20;;;47.30;16.30;;;;;;4964014;28;20207;-79
2021/09/07 12:01:03;;;;;;;5.68;5.35;;;46.10;16.50;;;;;;4989792;28;20256;-78
2021/09/07 12:03:44;;;;;;;4.57;4.38;;;44.90;17.10;;;;;;5047502;28;20202;-78
2021/09/07 12:06:14;;;;;;;4.05;3.83;;;43.50;17.60;;;;;;5047833;28;20217;-79
2021/09/07 12:08:46;;;;;;;3.80;3.60;;;42.20;18.00;;;;;;5047076;28;20739;-78
2021/09/07 12:11:27;;;;;;;3.40;3.25;;;41.00;18.40;;;;;;5047093;28;20560;-78
2021/09/07 12:14:03;;;;;;;3.45;3.25;;;40.00;18.90;;;;;;5048166;28;20612;-78
2021/09/07 12:16:30;;;;;;;3.03;2.83;;;39.00;19.40;;;;;;5048596;28;20285;-77
2021/09/07 12:18:57;;;;;;;2.55;2.45;;;38.20;19.80;;;;;;5049395;28;20235;-78
2021/09/07 12:21:26;;;;;;;2.90;2.70;;;37.30;20.10;;;;;;5047860;28;20205;-78
2021/09/07 12:23:55;;;;;;;3.95;3.53;;;36.60;20.60;;;;;;5049798;28;20217;-78
2021/09/07 12:26:39;;;;;;;3.55;3.30;;;35.80;21.10;;;;;;5048259;28;20203;-78
2021/09/07 12:29:13;;;;;;;3.65;3.35;;;35.20;21.50;;;;;;5048717;28;20680;-78
2021/09/07 12:31:40;;;;;;;3.33;3.08;;;34.50;21.90;;;;;;5048668;28;20518;-78
2021/09/07 12:34:07;;;;;;;2.72;2.53;;;33.90;22.40;;;;;;5049965;28;20201;-78
2021/09/07 12:36:45;;;;;;;2.95;2.75;;;33.40;22.80;;;;;;5049037;28;20669;-78
2021/09/07 12:39:12;;;;;;;2.65;2.45;;;32.80;23.10;;;;;;5047305;28;20205;-78
2021/09/07 12:41:40;;;;;;;2.70;2.60;;;32.50;23.50;;;;;;5046635;28;20236;-78
2021/09/07 12:44:07;;;;;;;3.88;3.58;;;32.20;23.80;;;;;;5048106;28;20662;-78
2021/09/07 12:46:35;;;;;;;3.00;2.80;;;31.80;24.60;;;;;;5047317;28;20412;-78
2021/09/07 12:49:02;;;;;;;2.78;2.67;;;31.40;24.30;;;;;;5045563;28;20240;-78
2021/09/07 12:51:29;;;;;;;3.67;3.40;;;31.00;24.50;;;;;;5048080;28;20194;-78
2021/09/07 12:54:01;;;;;;;3.95;3.65;;;30.70;24.80;;;;;;5048669;28;20279;-78
2021/09/07 12:56:33;;;;;;;3.63;3.33;;;30.40;25.20;;;;;;5046567;28;20633;-77
2021/09/07 12:59:03;;;;;;;3.10;2.90;;;30.10;25.60;;;;;;5048878;28;20194;-78
2021/09/07 13:01:31;;;;;;;2.80;2.60;;;30.00;25.90;;;;;;5046629;28;20213;-77